sensor_id;sensor_type;location;lat;lon;timestamp;pressure;altitude;pressure_sealevel;temperature;humidity
61898;BME280;47850;50.274;18.908;2023-02-13T00:01:01;100057.40;;;1.10;97.20
61898;BME280;47850;50.274;18.908;2023-02-13T00:03:28;100056.90;;;1.11;97.33
61898;BME280;47850;50.274;18.908;2023-02-13T00:05:56;100055.91;;;1.12;97.25
61898;BME280;47850;50.274;18.908;2023-02-13T00:08:24;100056.69;;;1.11;97.35
61898;BME280;47850;50.274;18.908;2023-02-13T00:10:52;100062.32;;;1.11;97.40
61898;BME280;47850;50.274;18.908;2023-02-13T00:13:19;100064.09;;;1.11;97.34
61898;BME280;47850;50.274;18.908;2023-02-13T00:15:58;100063.45;;;1.10;97.24
61898;BME280;47850;50.274;18.908;2023-02-13T00:18:28;100062.87;;;1.09;97.20
61898;BME280;47850;50.274;18.908;2023-02-13T00:21:00;100062.04;;;1.10;97.32
61898;BME280;47850;50.274;18.908;2023-02-13T00:23:30;100059.14;;;1.10;97.30
61898;BME280;47850;50.274;18.908;2023-02-13T00:25:59;100056.46;;;1.10;97.29
61898;BME280;47850;50.274;18.908;2023-02-13T00:28:27;100052.82;;;1.09;97.47
61898;BME280;47850;50.274;18.908;2023-02-13T00:31:02;100052.73;;;1.08;97.40
61898;BME280;47850;50.274;18.908;2023-02-13T00:33:30;100049.68;;;1.07;97.52
61898;BME280;47850;50.274;18.908;2023-02-13T00:36:07;100050.89;;;1.07;97.49
61898;BME280;47850;50.274;18.908;2023-02-13T00:38:36;100061.30;;;1.06;97.54
61898;BME280;47850;50.274;18.908;2023-02-13T00:41:04;100065.05;;;1.06;97.53
61898;BME280;47850;50.274;18.908;2023-02-13T00:43:32;100058.57;;;1.05;97.54
61898;BME280;47850;50.274;18.908;2023-02-13T00:46:01;100056.39;;;1.04;97.41
61898;BME280;47850;50.274;18.908;2023-02-13T00:48:31;100049.00;;;1.03;97.64
61898;BME280;47850;50.274;18.908;2023-02-13T00:51:00;100048.04;;;1.02;97.54
61898;BME280;47850;50.274;18.908;2023-02-13T00:53:28;100046.39;;;1.03;97.76
61898;BME280;47850;50.274;18.908;2023-02-13T00:55:56;100050.44;;;1.03;97.66
61898;BME280;47850;50.274;18.908;2023-02-13T00:58:25;100046.14;;;1.04;97.82
61898;BME280;47850;50.274;18.908;2023-02-13T01:00:53;100044.73;;;1.05;97.81
61898;BME280;47850;50.274;18.908;2023-02-13T01:03:22;100046.95;;;1.06;98.03
61898;BME280;47850;50.274;18.908;2023-02-13T01:05:50;100044.80;;;1.08;97.96
61898;BME280;47850;50.274;18.908;2023-02-13T01:08:19;100046.45;;;1.09;98.00
61898;BME280;47850;50.274;18.908;2023-02-13T01:10:48;100040.05;;;1.08;97.77
61898;BME280;47850;50.274;18.908;2023-02-13T01:13:17;100043.36;;;1.09;97.98
61898;BME280;47850;50.274;18.908;2023-02-13T01:15:46;100038.86;;;1.09;98.12
61898;BME280;47850;50.274;18.908;2023-02-13T01:18:16;100033.39;;;1.09;98.07
61898;BME280;47850;50.274;18.908;2023-02-13T01:20:55;100032.65;;;1.09;98.49
61898;BME280;47850;50.274;18.908;2023-02-13T01:23:23;100032.98;;;1.09;98.49
61898;BME280;47850;50.274;18.908;2023-02-13T01:25:51;100032.20;;;1.08;98.58
61898;BME280;47850;50.274;18.908;2023-02-13T01:28:19;100027.35;;;1.07;98.50
61898;BME280;47850;50.274;18.908;2023-02-13T01:30:55;100026.41;;;1.06;98.69
61898;BME280;47850;50.274;18.908;2023-02-13T01:33:24;100027.50;;;1.05;98.79
61898;BME280;47850;50.274;18.908;2023-02-13T01:35:53;100023.27;;;1.04;98.96
61898;BME280;47850;50.274;18.908;2023-02-13T01:38:21;100020.23;;;1.04;98.74
61898;BME280;47850;50.274;18.908;2023-02-13T01:40:51;100021.89;;;1.04;98.83
61898;BME280;47850;50.274;18.908;2023-02-13T01:43:20;100023.36;;;1.05;99.07
61898;BME280;47850;50.274;18.908;2023-02-13T01:45:54;100022.45;;;1.05;99.01
61898;BME280;47850;50.274;18.908;2023-02-13T01:48:25;100017.40;;;1.05;99.10
61898;BME280;47850;50.274;18.908;2023-02-13T01:51:01;100015.17;;;1.06;99.16
61898;BME280;47850;50.274;18.908;2023-02-13T01:53:35;100015.91;;;1.05;99.19
61898;BME280;47850;50.274;18.908;2023-02-13T01:56:24;100013.40;;;1.06;99.27
61898;BME280;47850;50.274;18.908;2023-02-13T01:58:57;100011.05;;;1.05;99.41
61898;BME280;47850;50.274;18.908;2023-02-13T02:01:27;100010.13;;;1.03;99.57
61898;BME280;47850;50.274;18.908;2023-02-13T02:03:59;100005.68;;;1.02;99.59
61898;BME280;47850;50.274;18.908;2023-02-13T02:06:37;100002.42;;;0.99;99.83
61898;BME280;47850;50.274;18.908;2023-02-13T02:09:15;99999.45;;;0.98;99.89
61898;BME280;47850;50.274;18.908;2023-02-13T02:11:51;100000.53;;;0.98;99.89
61898;BME280;47850;50.274;18.908;2023-02-13T02:14:21;100004.67;;;0.96;99.94
61898;BME280;47850;50.274;18.908;2023-02-13T02:16:49;100000.36;;;0.98;99.90
61898;BME280;47850;50.274;18.908;2023-02-13T02:19:48;99999.42;;;0.97;99.98
61898;BME280;47850;50.274;18.908;2023-02-13T02:28:43;99997.23;;;0.91;100.00
61898;BME280;47850;50.274;18.908;2023-02-13T02:34:00;99994.54;;;0.91;100.00
61898;BME280;47850;50.274;18.908;2023-02-13T02:44:40;99994.49;;;0.92;100.00
61898;BME280;47850;50.274;18.908;2023-02-13T02:47:30;99992.14;;;0.92;100.00
61898;BME280;47850;50.274;18.908;2023-02-13T02:50:23;99993.59;;;0.92;100.00
61898;BME280;47850;50.274;18.908;2023-02-13T02:53:05;99991.93;;;0.91;100.00
61898;BME280;47850;50.274;18.908;2023-02-13T03:00:58;99993.97;;;0.89;100.00
61898;BME280;47850;50.274;18.908;2023-02-13T03:03:46;99995.66;;;0.88;100.00
61898;BME280;47850;50.274;18.908;2023-02-13T03:06:45;99993.73;;;0.88;100.00
61898;BME280;47850;50.274;18.908;2023-02-13T03:09:20;99996.82;;;0.88;100.00
61898;BME280;47850;50.274;18.908;2023-02-13T03:12:10;99998.23;;;0.88;100.00
61898;BME280;47850;50.274;18.908;2023-02-13T03:14:59;99999.34;;;0.88;100.00
61898;BME280;47850;50.274;18.908;2023-02-13T03:17:26;100000.72;;;0.90;100.00
61898;BME280;47850;50.274;18.908;2023-02-13T03:20:52;100003.96;;;0.92;100.00
61898;BME280;47850;50.274;18.908;2023-02-13T03:23:59;100006.77;;;0.94;100.00
61898;BME280;47850;50.274;18.908;2023-02-13T03:26:37;100007.27;;;0.95;100.00
61898;BME280;47850;50.274;18.908;2023-02-13T03:30:07;100001.52;;;0.97;100.00
61898;BME280;47850;50.274;18.908;2023-02-13T03:32:44;100000.43;;;0.98;100.00
61898;BME280;47850;50.274;18.908;2023-02-13T03:35:36;100002.70;;;0.99;100.00
61898;BME280;47850;50.274;18.908;2023-02-13T03:38:29;100002.13;;;0.99;100.00
61898;BME280;47850;50.274;18.908;2023-02-13T03:41:21;100001.59;;;0.99;100.00
61898;BME280;47850;50.274;18.908;2023-02-13T03:44:00;100000.23;;;0.99;100.00
61898;BME280;47850;50.274;18.908;2023-02-13T03:46:36;100003.42;;;0.99;100.00
61898;BME280;47850;50.274;18.908;2023-02-13T03:49:10;99998.58;;;0.99;100.00
61898;BME280;47850;50.274;18.908;2023-02-13T03:52:08;99996.64;;;0.99;100.00
61898;BME280;47850;50.274;18.908;2023-02-13T03:54:42;99994.48;;;0.99;100.00
61898;BME280;47850;50.274;18.908;2023-02-13T03:57:32;100000.27;;;0.98;100.00
61898;BME280;47850;50.274;18.908;2023-02-13T04:00:22;100003.45;;;0.98;100.00
61898;BME280;47850;50.274;18.908;2023-02-13T04:05:41;100005.27;;;0.98;100.00
61898;BME280;47850;50.274;18.908;2023-02-13T04:08:11;100002.55;;;1.00;100.00
61898;BME280;47850;50.274;18.908;2023-02-13T04:10:49;100001.30;;;1.01;100.00
61898;BME280;47850;50.274;18.908;2023-02-13T04:14:01;100004.36;;;1.02;100.00
61898;BME280;47850;50.274;18.908;2023-02-13T04:16:31;99999.98;;;1.03;100.00
61898;BME280;47850;50.274;18.908;2023-02-13T04:19:01;99996.13;;;1.04;100.00
61898;BME280;47850;50.274;18.908;2023-02-13T04:21:35;99994.85;;;1.04;100.00
61898;BME280;47850;50.274;18.908;2023-02-13T04:24:03;99991.98;;;1.05;100.00
61898;BME280;47850;50.274;18.908;2023-02-13T04:26:35;99986.66;;;1.05;100.00
61898;BME280;47850;50.274;18.908;2023-02-13T04:29:04;99991.17;;;1.04;100.00
61898;BME280;47850;50.274;18.908;2023-02-13T04:31:32;99991.38;;;1.03;100.00
61898;BME280;47850;50.274;18.908;2023-02-13T04:34:00;99989.43;;;1.02;100.00
61898;BME280;47850;50.274;18.908;2023-02-13T04:36:28;99990.72;;;1.01;100.00
61898;BME280;47850;50.274;18.908;2023-02-13T04:38:56;99991.91;;;1.02;100.00
61898;BME280;47850;50.274;18.908;2023-02-13T04:41:24;99994.85;;;1.02;100.00
61898;BME280;47850;50.274;18.908;2023-02-13T04:43:52;99998.66;;;1.03;100.00
61898;BME280;47850;50.274;18.908;2023-02-13T04:46:20;99997.66;;;1.03;100.00
61898;BME280;47850;50.274;18.908;2023-02-13T04:48:48;99998.86;;;1.03;100.00
61898;BME280;47850;50.274;18.908;2023-02-13T04:51:15;99997.38;;;1.02;100.00
61898;BME280;47850;50.274;18.908;2023-02-13T04:53:43;99994.89;;;1.01;100.00
61898;BME280;47850;50.274;18.908;2023-02-13T04:56:11;99990.76;;;1.02;100.00
61898;BME280;47850;50.274;18.908;2023-02-13T04:58:39;99992.21;;;1.03;100.00
61898;BME280;47850;50.274;18.908;2023-02-13T05:01:13;99993.06;;;1.05;100.00
61898;BME280;47850;50.274;18.908;2023-02-13T05:03:41;99993.91;;;1.08;100.00
61898;BME280;47850;50.274;18.908;2023-02-13T05:06:09;99996.48;;;1.09;100.00
61898;BME280;47850;50.274;18.908;2023-02-13T05:08:37;99997.34;;;1.09;100.00
61898;BME280;47850;50.274;18.908;2023-02-13T05:11:05;99998.67;;;1.09;100.00
61898;BME280;47850;50.274;18.908;2023-02-13T05:13:33;99990.69;;;1.10;100.00
61898;BME280;47850;50.274;18.908;2023-02-13T05:16:01;99988.73;;;1.10;100.00
61898;BME280;47850;50.274;18.908;2023-02-13T05:18:29;99989.48;;;1.10;100.00
61898;BME280;47850;50.274;18.908;2023-02-13T05:20:56;99989.09;;;1.09;100.00
61898;BME280;47850;50.274;18.908;2023-02-13T05:23:43;99988.98;;;1.10;100.00
61898;BME280;47850;50.274;18.908;2023-02-13T05:26:11;99986.80;;;1.10;100.00
61898;BME280;47850;50.274;18.908;2023-02-13T05:28:38;99985.77;;;1.10;100.00
61898;BME280;47850;50.274;18.908;2023-02-13T05:31:25;99988.79;;;1.10;100.00
61898;BME280;47850;50.274;18.908;2023-02-13T05:33:53;99988.00;;;1.09;100.00
61898;BME280;47850;50.274;18.908;2023-02-13T05:36:20;99988.16;;;1.09;100.00
61898;BME280;47850;50.274;18.908;2023-02-13T05:38:48;99990.35;;;1.09;100.00
61898;BME280;47850;50.274;18.908;2023-02-13T05:41:16;99993.52;;;1.09;100.00
61898;BME280;47850;50.274;18.908;2023-02-13T05:43:44;99992.06;;;1.09;100.00
61898;BME280;47850;50.274;18.908;2023-02-13T05:46:12;99990.89;;;1.10;100.00
61898;BME280;47850;50.274;18.908;2023-02-13T05:48:40;99988.98;;;1.11;100.00
61898;BME280;47850;50.274;18.908;2023-02-13T05:51:07;99986.38;;;1.10;100.00
61898;BME280;47850;50.274;18.908;2023-02-13T05:53:35;99984.25;;;1.11;100.00
61898;BME280;47850;50.274;18.908;2023-02-13T05:56:04;99983.60;;;1.11;100.00
61898;BME280;47850;50.274;18.908;2023-02-13T05:58:33;99986.90;;;1.12;100.00
61898;BME280;47850;50.274;18.908;2023-02-13T06:01:01;99990.80;;;1.13;100.00
61898;BME280;47850;50.274;18.908;2023-02-13T06:03:31;99996.23;;;1.13;100.00
61898;BME280;47850;50.274;18.908;2023-02-13T06:05:59;99998.83;;;1.14;100.00
61898;BME280;47850;50.274;18.908;2023-02-13T06:08:27;100002.58;;;1.16;100.00
61898;BME280;47850;50.274;18.908;2023-02-13T06:10:55;100001.04;;;1.16;100.00
61898;BME280;47850;50.274;18.908;2023-02-13T06:13:23;100005.34;;;1.16;100.00
61898;BME280;47850;50.274;18.908;2023-02-13T06:15:51;100007.49;;;1.18;100.00
61898;BME280;47850;50.274;18.908;2023-02-13T06:18:19;100008.27;;;1.18;100.00
61898;BME280;47850;50.274;18.908;2023-02-13T06:20:47;100005.61;;;1.19;100.00
61898;BME280;47850;50.274;18.908;2023-02-13T06:23:15;100008.01;;;1.20;100.00
61898;BME280;47850;50.274;18.908;2023-02-13T06:25:43;100011.45;;;1.21;100.00
61898;BME280;47850;50.274;18.908;2023-02-13T06:28:11;100011.73;;;1.20;100.00
61898;BME280;47850;50.274;18.908;2023-02-13T06:30:38;100011.77;;;1.20;100.00
61898;BME280;47850;50.274;18.908;2023-02-13T06:33:07;100011.40;;;1.20;100.00
61898;BME280;47850;50.274;18.908;2023-02-13T06:35:35;100006.85;;;1.21;100.00
61898;BME280;47850;50.274;18.908;2023-02-13T06:38:02;100009.04;;;1.21;100.00
61898;BME280;47850;50.274;18.908;2023-02-13T06:40:30;100011.61;;;1.21;100.00
61898;BME280;47850;50.274;18.908;2023-02-13T06:42:58;100009.98;;;1.23;100.00
61898;BME280;47850;50.274;18.908;2023-02-13T06:45:26;100007.55;;;1.25;100.00
61898;BME280;47850;50.274;18.908;2023-02-13T06:47:54;100009.44;;;1.27;100.00
61898;BME280;47850;50.274;18.908;2023-02-13T06:50:21;100012.31;;;1.31;100.00
61898;BME280;47850;50.274;18.908;2023-02-13T06:52:50;100011.20;;;1.32;100.00
61898;BME280;47850;50.274;18.908;2023-02-13T06:55:18;100011.80;;;1.35;100.00
61898;BME280;47850;50.274;18.908;2023-02-13T06:57:47;100015.46;;;1.39;100.00
61898;BME280;47850;50.274;18.908;2023-02-13T07:00:16;100017.41;;;1.47;100.00
61898;BME280;47850;50.274;18.908;2023-02-13T07:02:45;100017.65;;;1.50;100.00
61898;BME280;47850;50.274;18.908;2023-02-13T07:05:14;100023.86;;;1.51;100.00
61898;BME280;47850;50.274;18.908;2023-02-13T07:07:42;100020.86;;;1.53;100.00
61898;BME280;47850;50.274;18.908;2023-02-13T07:10:12;100023.14;;;1.52;100.00
61898;BME280;47850;50.274;18.908;2023-02-13T07:12:40;100022.20;;;1.50;100.00
61898;BME280;47850;50.274;18.908;2023-02-13T07:15:08;100021.20;;;1.51;100.00
61898;BME280;47850;50.274;18.908;2023-02-13T07:17:37;100020.15;;;1.54;100.00
61898;BME280;47850;50.274;18.908;2023-02-13T07:20:06;100022.77;;;1.60;100.00
61898;BME280;47850;50.274;18.908;2023-02-13T07:22:34;100017.15;;;1.68;100.00
61898;BME280;47850;50.274;18.908;2023-02-13T07:25:01;100010.79;;;1.74;100.00
61898;BME280;47850;50.274;18.908;2023-02-13T07:27:29;100007.12;;;1.79;100.00
61898;BME280;47850;50.274;18.908;2023-02-13T07:29:57;100006.91;;;1.85;100.00
61898;BME280;47850;50.274;18.908;2023-02-13T07:32:25;100015.45;;;1.94;100.00
61898;BME280;47850;50.274;18.908;2023-02-13T07:34:53;100019.71;;;2.02;100.00
61898;BME280;47850;50.274;18.908;2023-02-13T07:37:20;100021.43;;;2.11;100.00
61898;BME280;47850;50.274;18.908;2023-02-13T07:39:48;100017.73;;;2.18;100.00
61898;BME280;47850;50.274;18.908;2023-02-13T07:42:16;100017.37;;;2.23;100.00
61898;BME280;47850;50.274;18.908;2023-02-13T07:44:44;100011.63;;;2.27;100.00
61898;BME280;47850;50.274;18.908;2023-02-13T07:47:12;100010.42;;;2.32;100.00
61898;BME280;47850;50.274;18.908;2023-02-13T07:49:40;100008.11;;;2.43;100.00
61898;BME280;47850;50.274;18.908;2023-02-13T07:52:07;100004.71;;;2.51;100.00
61898;BME280;47850;50.274;18.908;2023-02-13T07:54:35;100000.63;;;2.59;99.80
61898;BME280;47850;50.274;18.908;2023-02-13T07:57:03;100003.48;;;2.64;99.33
61898;BME280;47850;50.274;18.908;2023-02-13T07:59:31;100007.61;;;2.69;98.68
61898;BME280;47850;50.274;18.908;2023-02-13T08:01:59;100008.68;;;2.75;98.76
61898;BME280;47850;50.274;18.908;2023-02-13T08:04:27;100012.16;;;2.80;98.41
61898;BME280;47850;50.274;18.908;2023-02-13T08:06:54;100007.33;;;2.86;98.40
61898;BME280;47850;50.274;18.908;2023-02-13T08:09:22;100005.63;;;2.90;98.16
61898;BME280;47850;50.274;18.908;2023-02-13T08:12:09;100005.51;;;2.90;97.69
61898;BME280;47850;50.274;18.908;2023-02-13T08:14:37;100000.17;;;2.92;97.48
61898;BME280;47850;50.274;18.908;2023-02-13T08:17:05;100000.45;;;2.98;97.44
61898;BME280;47850;50.274;18.908;2023-02-13T08:19:33;100003.96;;;3.07;97.25
61898;BME280;47850;50.274;18.908;2023-02-13T08:22:01;100009.70;;;3.13;97.01
61898;BME280;47850;50.274;18.908;2023-02-13T08:24:28;100010.40;;;3.17;96.97
61898;BME280;47850;50.274;18.908;2023-02-13T08:26:56;100007.94;;;3.21;97.02
61898;BME280;47850;50.274;18.908;2023-02-13T08:29:24;100010.87;;;3.26;96.98
61898;BME280;47850;50.274;18.908;2023-02-13T08:31:52;100014.20;;;3.31;96.81
61898;BME280;47850;50.274;18.908;2023-02-13T08:34:20;100014.67;;;3.38;96.70
61898;BME280;47850;50.274;18.908;2023-02-13T08:36:47;100020.27;;;3.42;96.47
61898;BME280;47850;50.274;18.908;2023-02-13T08:39:15;100020.85;;;3.41;96.04
61898;BME280;47850;50.274;18.908;2023-02-13T08:41:43;100019.40;;;3.41;95.85
61898;BME280;47850;50.274;18.908;2023-02-13T08:44:11;100017.44;;;3.42;95.75
61898;BME280;47850;50.274;18.908;2023-02-13T08:46:39;100014.98;;;3.46;95.70
61898;BME280;47850;50.274;18.908;2023-02-13T08:49:06;100015.46;;;3.51;95.61
61898;BME280;47850;50.274;18.908;2023-02-13T08:51:34;100021.05;;;3.52;95.27
61898;BME280;47850;50.274;18.908;2023-02-13T08:54:02;100014.58;;;3.51;95.23
61898;BME280;47850;50.274;18.908;2023-02-13T08:56:30;100018.09;;;3.53;94.95
61898;BME280;47850;50.274;18.908;2023-02-13T08:58:58;100015.51;;;3.57;94.90
61898;BME280;47850;50.274;18.908;2023-02-13T09:01:25;100013.88;;;3.60;94.81
61898;BME280;47850;50.274;18.908;2023-02-13T09:03:54;100016.41;;;3.58;94.54
61898;BME280;47850;50.274;18.908;2023-02-13T09:06:21;100015.05;;;3.54;94.34
61898;BME280;47850;50.274;18.908;2023-02-13T09:08:49;100013.95;;;3.51;94.42
61898;BME280;47850;50.274;18.908;2023-02-13T09:11:17;100014.06;;;3.49;94.51
61898;BME280;47850;50.274;18.908;2023-02-13T09:13:46;100014.27;;;3.47;94.55
61898;BME280;47850;50.274;18.908;2023-02-13T09:16:15;100015.25;;;3.47;94.66
61898;BME280;47850;50.274;18.908;2023-02-13T09:18:45;100013.87;;;3.48;94.76
61898;BME280;47850;50.274;18.908;2023-02-13T09:21:14;100014.98;;;3.52;94.86
61898;BME280;47850;50.274;18.908;2023-02-13T09:23:42;100012.52;;;3.54;94.79
61898;BME280;47850;50.274;18.908;2023-02-13T09:26:12;100013.45;;;3.58;94.85
61898;BME280;47850;50.274;18.908;2023-02-13T09:28:40;100016.89;;;3.66;94.95
61898;BME280;47850;50.274;18.908;2023-02-13T09:31:11;100023.56;;;3.75;95.33
61898;BME280;47850;50.274;18.908;2023-02-13T09:33:43;100029.23;;;3.77;94.95
61898;BME280;47850;50.274;18.908;2023-02-13T09:36:13;100027.03;;;3.80;94.90
61898;BME280;47850;50.274;18.908;2023-02-13T09:38:42;100030.73;;;3.83;95.17
61898;BME280;47850;50.274;18.908;2023-02-13T09:41:23;100031.15;;;3.82;95.04
61898;BME280;47850;50.274;18.908;2023-02-13T09:44:04;100027.61;;;3.81;95.04
61898;BME280;47850;50.274;18.908;2023-02-13T09:46:39;100021.06;;;3.85;95.00
61898;BME280;47850;50.274;18.908;2023-02-13T09:49:12;100018.39;;;3.86;94.90
61898;BME280;47850;50.274;18.908;2023-02-13T09:51:43;100012.02;;;3.91;95.12
61898;BME280;47850;50.274;18.908;2023-02-13T09:54:15;100010.83;;;3.98;94.90
61898;BME280;47850;50.274;18.908;2023-02-13T10:02:48;100011.82;;;4.01;94.82
61898;BME280;47850;50.274;18.908;2023-02-13T10:05:59;100004.58;;;3.94;94.90
61898;BME280;47850;50.274;18.908;2023-02-13T10:08:45;100007.82;;;3.96;95.14
61898;BME280;47850;50.274;18.908;2023-02-13T10:11:39;100004.94;;;3.98;95.10
61898;BME280;47850;50.274;18.908;2023-02-13T10:16:54;100005.70;;;3.90;94.75
61898;BME280;47850;50.274;18.908;2023-02-13T10:21:54;100003.41;;;3.80;95.51
61898;BME280;47850;50.274;18.908;2023-02-13T10:24:36;99996.30;;;3.81;95.54
61898;BME280;47850;50.274;18.908;2023-02-13T10:27:28;99993.63;;;3.82;95.66
61898;BME280;47850;50.274;18.908;2023-02-13T10:32:58;99988.36;;;3.75;96.03
61898;BME280;47850;50.274;18.908;2023-02-13T10:36:02;99982.41;;;3.79;96.14
61898;BME280;47850;50.274;18.908;2023-02-13T10:38:35;99976.06;;;3.90;96.07
61898;BME280;47850;50.274;18.908;2023-02-13T10:51:50;99964.61;;;3.83;96.21
61898;BME280;47850;50.274;18.908;2023-02-13T10:57:47;99959.77;;;3.80;96.23
61898;BME280;47850;50.274;18.908;2023-02-13T11:03:27;99954.83;;;3.74;96.83
61898;BME280;47850;50.274;18.908;2023-02-13T11:05:57;99950.81;;;3.73;97.05
61898;BME280;47850;50.274;18.908;2023-02-13T11:08:40;99951.25;;;3.78;97.16
61898;BME280;47850;50.274;18.908;2023-02-13T11:11:36;99948.46;;;3.78;97.18
61898;BME280;47850;50.274;18.908;2023-02-13T11:14:19;99940.58;;;3.80;97.12
61898;BME280;47850;50.274;18.908;2023-02-13T11:17:02;99936.65;;;3.85;97.28
61898;BME280;47850;50.274;18.908;2023-02-13T11:19:37;99940.62;;;3.86;97.21
61898;BME280;47850;50.274;18.908;2023-02-13T11:22:16;99932.55;;;3.90;97.16
61898;BME280;47850;50.274;18.908;2023-02-13T11:24:56;99931.37;;;3.96;97.09
61898;BME280;47850;50.274;18.908;2023-02-13T11:27:31;99927.39;;;4.04;97.09
61898;BME280;47850;50.274;18.908;2023-02-13T11:30:47;99924.48;;;4.11;96.98
61898;BME280;47850;50.274;18.908;2023-02-13T11:33:00;99922.48;;;4.22;96.84
61898;BME280;47850;50.274;18.908;2023-02-13T11:35:35;99923.45;;;4.27;96.64
61898;BME280;47850;50.274;18.908;2023-02-13T11:40:49;99923.58;;;4.23;96.82
61898;BME280;47850;50.274;18.908;2023-02-13T11:43:29;99922.60;;;4.22;96.92
61898;BME280;47850;50.274;18.908;2023-02-13T11:48:31;99919.60;;;4.31;97.04
61898;BME280;47850;50.274;18.908;2023-02-13T11:50:59;99911.17;;;4.34;96.95
61898;BME280;47850;50.274;18.908;2023-02-13T11:53:38;99907.81;;;4.40;96.97
61898;BME280;47850;50.274;18.908;2023-02-13T11:56:14;99904.42;;;4.45;96.84
61898;BME280;47850;50.274;18.908;2023-02-13T11:58:42;99899.73;;;4.46;96.99
61898;BME280;47850;50.274;18.908;2023-02-13T12:01:23;99899.77;;;4.45;97.00
61898;BME280;47850;50.274;18.908;2023-02-13T12:04:05;99899.58;;;4.41;97.25
61898;BME280;47850;50.274;18.908;2023-02-13T12:06:34;99905.73;;;4.36;97.35
61898;BME280;47850;50.274;18.908;2023-02-13T12:09:14;99907.38;;;4.33;97.41
61898;BME280;47850;50.274;18.908;2023-02-13T12:11:48;99907.95;;;4.32;97.53
61898;BME280;47850;50.274;18.908;2023-02-13T12:14:20;99903.12;;;4.34;97.65
61898;BME280;47850;50.274;18.908;2023-02-13T12:16:53;99898.68;;;4.30;97.69
61898;BME280;47850;50.274;18.908;2023-02-13T12:19:39;99893.59;;;4.27;97.76
61898;BME280;47850;50.274;18.908;2023-02-13T12:22:22;99895.23;;;4.24;97.78
61898;BME280;47850;50.274;18.908;2023-02-13T12:33:13;99895.02;;;4.09;97.97
61898;BME280;47850;50.274;18.908;2023-02-13T12:42:00;99900.22;;;4.04;98.11
61898;BME280;47850;50.274;18.908;2023-02-13T12:44:57;99899.63;;;4.03;98.18
61898;BME280;47850;50.274;18.908;2023-02-13T12:47:34;99899.21;;;4.07;98.37
61898;BME280;47850;50.274;18.908;2023-02-13T13:06:54;99888.09;;;4.18;98.27
61898;BME280;47850;50.274;18.908;2023-02-13T13:09:35;99887.67;;;4.23;98.34
61898;BME280;47850;50.274;18.908;2023-02-13T13:15:34;99895.30;;;4.31;98.15
61898;BME280;47850;50.274;18.908;2023-02-13T13:18:17;99888.11;;;4.36;98.00
61898;BME280;47850;50.274;18.908;2023-02-13T13:23:55;99898.14;;;4.42;97.84
61898;BME280;47850;50.274;18.908;2023-02-13T13:26:34;99895.64;;;4.44;97.82
61898;BME280;47850;50.274;18.908;2023-02-13T13:29:14;99893.96;;;4.46;97.75
61898;BME280;47850;50.274;18.908;2023-02-13T13:31:52;99894.05;;;4.48;97.67
61898;BME280;47850;50.274;18.908;2023-02-13T13:34:23;99890.91;;;4.47;97.35
61898;BME280;47850;50.274;18.908;2023-02-13T13:37:28;99884.88;;;4.54;97.18
61898;BME280;47850;50.274;18.908;2023-02-13T13:42:51;99888.02;;;4.61;96.86
61898;BME280;47850;50.274;18.908;2023-02-13T13:50:53;99891.79;;;4.51;97.03
61898;BME280;47850;50.274;18.908;2023-02-13T13:53:22;99895.98;;;4.51;96.63
61898;BME280;47850;50.274;18.908;2023-02-13T13:58:24;99892.02;;;4.41;96.23
61898;BME280;47850;50.274;18.908;2023-02-13T14:01:23;99893.67;;;4.51;96.40
61898;BME280;47850;50.274;18.908;2023-02-13T14:11:55;99889.55;;;4.40;96.60
61898;BME280;47850;50.274;18.908;2023-02-13T14:16:57;99887.34;;;4.23;96.43
61898;BME280;47850;50.274;18.908;2023-02-13T14:19:37;99888.89;;;4.16;96.29
61898;BME280;47850;50.274;18.908;2023-02-13T14:25:27;99889.30;;;4.06;96.37
61898;BME280;47850;50.274;18.908;2023-02-13T14:28:00;99888.66;;;4.00;96.16
61898;BME280;47850;50.274;18.908;2023-02-13T14:30:32;99891.38;;;4.02;95.71
61898;BME280;47850;50.274;18.908;2023-02-13T14:33:24;99893.19;;;4.10;95.62
61898;BME280;47850;50.274;18.908;2023-02-13T14:36:03;99885.44;;;4.16;95.14
61898;BME280;47850;50.274;18.908;2023-02-13T14:38:33;99884.35;;;4.20;94.58
61898;BME280;47850;50.274;18.908;2023-02-13T14:41:02;99887.46;;;4.21;94.57
61898;BME280;47850;50.274;18.908;2023-02-13T14:43:50;99882.70;;;4.19;94.06
61898;BME280;47850;50.274;18.908;2023-02-13T14:46:25;99885.91;;;4.15;93.84
61898;BME280;47850;50.274;18.908;2023-02-13T14:49:04;99882.73;;;4.15;93.62
61898;BME280;47850;50.274;18.908;2023-02-13T14:51:57;99872.71;;;4.14;93.64
61898;BME280;47850;50.274;18.908;2023-02-13T14:54:29;99874.69;;;4.13;93.62
61898;BME280;47850;50.274;18.908;2023-02-13T14:59:57;99865.34;;;3.99;93.69
61898;BME280;47850;50.274;18.908;2023-02-13T15:02:28;99865.11;;;3.91;93.65
61898;BME280;47850;50.274;18.908;2023-02-13T15:05:02;99865.16;;;3.84;93.60
61898;BME280;47850;50.274;18.908;2023-02-13T15:07:36;99869.30;;;3.79;93.37
61898;BME280;47850;50.274;18.908;2023-02-13T15:10:42;99874.05;;;3.77;93.29
61898;BME280;47850;50.274;18.908;2023-02-13T15:13:14;99865.63;;;3.74;92.91
61898;BME280;47850;50.274;18.908;2023-02-13T15:15:47;99868.29;;;3.71;92.58
61898;BME280;47850;50.274;18.908;2023-02-13T15:18:24;99868.02;;;3.68;92.68
61898;BME280;47850;50.274;18.908;2023-02-13T15:20:55;99856.55;;;3.65;92.69
61898;BME280;47850;50.274;18.908;2023-02-13T15:23:28;99857.39;;;3.62;92.41
61898;BME280;47850;50.274;18.908;2023-02-13T15:26:01;99854.28;;;3.56;92.36
61898;BME280;47850;50.274;18.908;2023-02-13T15:28:30;99855.59;;;3.52;92.60
61898;BME280;47850;50.274;18.908;2023-02-13T15:31:00;99862.19;;;3.47;93.03